Point Pleasant, West Virginia
Current Conditions -  °F | °C
As of 10:55 AM on Sunday 23 Nov 2014 (Local Time) from K3I2 Reporting Station
Scattered Clouds Scattered Clouds  
Wind Chill: 61°   Ceiling: Unl
Heat Index: 61°   Visibility: 10mi
Dew Point: 34°   Wind: 5mph
Humidity: 36%   Direction: 120°ESE
Pressure: 30.02"   Gusts: NA
Location:  38.84°N, 82.14°W
Report Text: K3I2 231555Z AUTO 12004KT 10SM SCT050 16/01 A3002 RMK AO2
Loading
Personal Weather Stations






























Interactive Weather Map New forecast layout! Learn more

10-Day Weather Forecast

Advertisements
Track Severe Weather on mobile